sensor_id;sensor_type;location;lat;lon;timestamp;P1;durP1;ratioP1;P2;durP2;ratioP2
840;SDS011;406;48.566;13.450;2023-11-19T00:02:26;12.90;;;11.43;;
840;SDS011;406;48.566;13.450;2023-11-19T00:04:53;13.77;;;11.43;;
840;SDS011;406;48.566;13.450;2023-11-19T00:07:20;12.27;;;10.23;;
840;SDS011;406;48.566;13.450;2023-11-19T00:09:47;12.23;;;11.00;;
840;SDS011;406;48.566;13.450;2023-11-19T00:12:14;8.80;;;7.70;;
840;SDS011;406;48.566;13.450;2023-11-19T00:14:40;8.73;;;7.83;;
840;SDS011;406;48.566;13.450;2023-11-19T00:17:07;8.10;;;7.27;;
840;SDS011;406;48.566;13.450;2023-11-19T00:19:33;8.40;;;7.57;;
840;SDS011;406;48.566;13.450;2023-11-19T00:22:00;8.37;;;6.57;;
840;SDS011;406;48.566;13.450;2023-11-19T00:24:29;7.17;;;6.47;;
840;SDS011;406;48.566;13.450;2023-11-19T00:26:56;8.13;;;6.70;;
840;SDS011;406;48.566;13.450;2023-11-19T00:29:23;8.00;;;6.97;;
840;SDS011;406;48.566;13.450;2023-11-19T00:31:50;7.80;;;6.60;;
840;SDS011;406;48.566;13.450;2023-11-19T00:34:17;8.97;;;7.17;;
840;SDS011;406;48.566;13.450;2023-11-19T00:36:47;7.53;;;6.43;;
840;SDS011;406;48.566;13.450;2023-11-19T00:39:15;9.33;;;7.40;;
840;SDS011;406;48.566;13.450;2023-11-19T00:41:41;8.30;;;6.57;;
840;SDS011;406;48.566;13.450;2023-11-19T00:44:08;8.03;;;6.53;;
840;SDS011;406;48.566;13.450;2023-11-19T00:46:35;6.90;;;6.30;;
840;SDS011;406;48.566;13.450;2023-11-19T00:49:03;7.90;;;7.10;;
840;SDS011;406;48.566;13.450;2023-11-19T00:51:30;6.43;;;5.83;;
840;SDS011;406;48.566;13.450;2023-11-19T00:53:58;7.23;;;6.17;;
840;SDS011;406;48.566;13.450;2023-11-19T00:56:25;8.40;;;6.53;;
840;SDS011;406;48.566;13.450;2023-11-19T00:58:52;8.97;;;6.53;;
840;SDS011;406;48.566;13.450;2023-11-19T01:01:18;10.23;;;8.00;;
840;SDS011;406;48.566;13.450;2023-11-19T01:03:45;9.00;;;6.47;;
840;SDS011;406;48.566;13.450;2023-11-19T01:06:12;10.30;;;7.37;;
840;SDS011;406;48.566;13.450;2023-11-19T01:08:40;9.23;;;8.13;;
840;SDS011;406;48.566;13.450;2023-11-19T01:11:09;8.80;;;7.30;;
840;SDS011;406;48.566;13.450;2023-11-19T01:13:35;9.13;;;8.23;;
840;SDS011;406;48.566;13.450;2023-11-19T01:16:02;10.00;;;8.33;;
840;SDS011;406;48.566;13.450;2023-11-19T01:18:29;8.57;;;6.90;;
840;SDS011;406;48.566;13.450;2023-11-19T01:20:55;10.03;;;9.03;;
840;SDS011;406;48.566;13.450;2023-11-19T01:23:22;9.07;;;7.50;;
840;SDS011;406;48.566;13.450;2023-11-19T01:25:48;12.33;;;8.50;;
840;SDS011;406;48.566;13.450;2023-11-19T01:28:15;10.23;;;9.10;;
840;SDS011;406;48.566;13.450;2023-11-19T01:30:42;11.20;;;9.87;;
840;SDS011;406;48.566;13.450;2023-11-19T01:33:08;15.87;;;10.93;;
840;SDS011;406;48.566;13.450;2023-11-19T01:35:35;11.77;;;10.23;;
840;SDS011;406;48.566;13.450;2023-11-19T01:38:01;12.43;;;9.60;;
840;SDS011;406;48.566;13.450;2023-11-19T01:40:28;12.63;;;11.30;;
840;SDS011;406;48.566;13.450;2023-11-19T01:42:55;12.87;;;10.53;;
840;SDS011;406;48.566;13.450;2023-11-19T01:45:22;11.77;;;10.50;;
840;SDS011;406;48.566;13.450;2023-11-19T01:47:55;11.63;;;10.27;;
840;SDS011;406;48.566;13.450;2023-11-19T01:50:22;12.90;;;11.53;;
840;SDS011;406;48.566;13.450;2023-11-19T01:52:53;10.90;;;9.03;;
840;SDS011;406;48.566;13.450;2023-11-19T01:55:20;12.63;;;11.17;;
840;SDS011;406;48.566;13.450;2023-11-19T01:57:48;13.00;;;10.80;;
840;SDS011;406;48.566;13.450;2023-11-19T02:00:16;12.20;;;10.50;;
840;SDS011;406;48.566;13.450;2023-11-19T02:02:43;14.07;;;11.37;;
840;SDS011;406;48.566;13.450;2023-11-19T02:05:11;11.77;;;10.43;;
840;SDS011;406;48.566;13.450;2023-11-19T02:07:38;12.20;;;10.50;;
840;SDS011;406;48.566;13.450;2023-11-19T02:10:05;14.20;;;11.43;;
840;SDS011;406;48.566;13.450;2023-11-19T02:12:32;11.83;;;10.50;;
840;SDS011;406;48.566;13.450;2023-11-19T02:15:02;13.20;;;11.50;;
840;SDS011;406;48.566;13.450;2023-11-19T02:17:29;14.20;;;10.60;;
840;SDS011;406;48.566;13.450;2023-11-19T02:20:00;12.77;;;11.47;;
840;SDS011;406;48.566;13.450;2023-11-19T02:22:27;11.50;;;10.30;;
840;SDS011;406;48.566;13.450;2023-11-19T02:24:59;13.63;;;11.57;;
840;SDS011;406;48.566;13.450;2023-11-19T02:30:03;12.87;;;10.53;;
840;SDS011;406;48.566;13.450;2023-11-19T02:32:32;11.87;;;10.67;;
840;SDS011;406;48.566;13.450;2023-11-19T02:34:59;12.37;;;10.80;;
840;SDS011;406;48.566;13.450;2023-11-19T02:37:28;13.47;;;9.87;;
840;SDS011;406;48.566;13.450;2023-11-19T02:39:54;15.63;;;11.60;;
840;SDS011;406;48.566;13.450;2023-11-19T02:42:21;10.90;;;9.83;;
840;SDS011;406;48.566;13.450;2023-11-19T02:44:48;10.83;;;9.73;;
840;SDS011;406;48.566;13.450;2023-11-19T02:47:14;12.57;;;11.13;;
840;SDS011;406;48.566;13.450;2023-11-19T02:49:41;13.37;;;9.73;;
840;SDS011;406;48.566;13.450;2023-11-19T02:52:09;12.13;;;10.40;;
840;SDS011;406;48.566;13.450;2023-11-19T02:54:36;12.35;;;10.38;;
840;SDS011;406;48.566;13.450;2023-11-19T02:57:03;11.00;;;8.80;;
840;SDS011;406;48.566;13.450;2023-11-19T02:59:30;11.33;;;9.87;;
840;SDS011;406;48.566;13.450;2023-11-19T03:02:05;11.97;;;8.90;;
840;SDS011;406;48.566;13.450;2023-11-19T03:04:42;10.30;;;8.50;;
840;SDS011;406;48.566;13.450;2023-11-19T03:07:10;11.63;;;10.30;;
840;SDS011;406;48.566;13.450;2023-11-19T03:09:37;13.17;;;9.37;;
840;SDS011;406;48.566;13.450;2023-11-19T03:12:06;11.50;;;9.57;;
840;SDS011;406;48.566;13.450;2023-11-19T03:14:33;9.90;;;8.50;;
840;SDS011;406;48.566;13.450;2023-11-19T03:17:03;10.90;;;8.87;;
840;SDS011;406;48.566;13.450;2023-11-19T03:19:31;11.03;;;8.77;;
840;SDS011;406;48.566;13.450;2023-11-19T03:21:58;9.37;;;7.83;;
840;SDS011;406;48.566;13.450;2023-11-19T03:24:26;9.13;;;8.10;;
840;SDS011;406;48.566;13.450;2023-11-19T03:26:52;11.30;;;8.57;;
840;SDS011;406;48.566;13.450;2023-11-19T03:29:19;10.03;;;8.70;;
840;SDS011;406;48.566;13.450;2023-11-19T03:31:45;8.90;;;8.00;;
840;SDS011;406;48.566;13.450;2023-11-19T03:34:12;10.03;;;7.90;;
840;SDS011;406;48.566;13.450;2023-11-19T03:36:38;9.40;;;8.47;;
840;SDS011;406;48.566;13.450;2023-11-19T03:39:06;8.67;;;7.20;;
840;SDS011;406;48.566;13.450;2023-11-19T03:41:33;9.57;;;8.50;;
840;SDS011;406;48.566;13.450;2023-11-19T03:44:02;9.67;;;8.17;;
840;SDS011;406;48.566;13.450;2023-11-19T03:46:29;9.50;;;8.47;;
840;SDS011;406;48.566;13.450;2023-11-19T03:48:56;8.27;;;7.40;;
840;SDS011;406;48.566;13.450;2023-11-19T03:51:23;9.07;;;8.17;;
840;SDS011;406;48.566;13.450;2023-11-19T03:53:49;8.67;;;7.33;;
840;SDS011;406;48.566;13.450;2023-11-19T03:56:16;10.20;;;8.10;;
840;SDS011;406;48.566;13.450;2023-11-19T03:58:43;10.13;;;8.60;;
840;SDS011;406;48.566;13.450;2023-11-19T04:01:12;9.07;;;8.17;;
840;SDS011;406;48.566;13.450;2023-11-19T04:03:42;9.50;;;7.87;;
840;SDS011;406;48.566;13.450;2023-11-19T04:06:11;10.20;;;8.03;;
840;SDS011;406;48.566;13.450;2023-11-19T04:08:38;10.77;;;9.00;;
840;SDS011;406;48.566;13.450;2023-11-19T04:11:04;9.00;;;7.87;;
840;SDS011;406;48.566;13.450;2023-11-19T04:13:31;8.53;;;7.67;;
840;SDS011;406;48.566;13.450;2023-11-19T04:15:58;10.53;;;8.00;;
840;SDS011;406;48.566;13.450;2023-11-19T04:18:24;10.13;;;7.77;;
840;SDS011;406;48.566;13.450;2023-11-19T04:20:51;9.33;;;8.10;;
840;SDS011;406;48.566;13.450;2023-11-19T04:23:17;9.37;;;7.00;;
840;SDS011;406;48.566;13.450;2023-11-19T04:25:44;9.47;;;8.30;;
840;SDS011;406;48.566;13.450;2023-11-19T04:28:10;10.93;;;8.70;;
840;SDS011;406;48.566;13.450;2023-11-19T04:30:37;9.93;;;8.47;;
840;SDS011;406;48.566;13.450;2023-11-19T04:33:04;9.13;;;7.40;;
840;SDS011;406;48.566;13.450;2023-11-19T04:35:30;9.10;;;7.37;;
840;SDS011;406;48.566;13.450;2023-11-19T04:37:57;9.60;;;7.40;;
840;SDS011;406;48.566;13.450;2023-11-19T04:40:24;9.57;;;8.33;;
840;SDS011;406;48.566;13.450;2023-11-19T04:42:51;8.77;;;7.43;;
840;SDS011;406;48.566;13.450;2023-11-19T04:45:17;8.70;;;7.27;;
840;SDS011;406;48.566;13.450;2023-11-19T04:47:44;8.60;;;7.70;;
840;SDS011;406;48.566;13.450;2023-11-19T04:50:10;8.53;;;7.63;;
840;SDS011;406;48.566;13.450;2023-11-19T04:52:38;8.30;;;7.23;;
840;SDS011;406;48.566;13.450;2023-11-19T04:55:12;7.50;;;6.80;;
840;SDS011;406;48.566;13.450;2023-11-19T04:57:40;8.40;;;6.80;;
840;SDS011;406;48.566;13.450;2023-11-19T05:00:07;7.93;;;7.10;;
840;SDS011;406;48.566;13.450;2023-11-19T05:02:36;8.38;;;7.32;;
840;SDS011;406;48.566;13.450;2023-11-19T05:05:03;8.50;;;6.20;;
840;SDS011;406;48.566;13.450;2023-11-19T05:07:31;8.10;;;6.80;;
840;SDS011;406;48.566;13.450;2023-11-19T05:09:57;10.00;;;7.70;;
840;SDS011;406;48.566;13.450;2023-11-19T05:12:24;9.27;;;7.80;;
840;SDS011;406;48.566;13.450;2023-11-19T05:14:51;7.63;;;5.80;;
840;SDS011;406;48.566;13.450;2023-11-19T05:17:17;7.97;;;6.97;;
840;SDS011;406;48.566;13.450;2023-11-19T05:19:45;7.70;;;6.37;;
840;SDS011;406;48.566;13.450;2023-11-19T05:22:12;8.53;;;6.27;;
840;SDS011;406;48.566;13.450;2023-11-19T05:24:39;7.67;;;6.27;;
840;SDS011;406;48.566;13.450;2023-11-19T05:27:07;8.13;;;6.50;;
840;SDS011;406;48.566;13.450;2023-11-19T05:29:34;6.07;;;5.47;;
840;SDS011;406;48.566;13.450;2023-11-19T05:32:00;7.87;;;6.40;;
840;SDS011;406;48.566;13.450;2023-11-19T05:34:27;6.40;;;5.67;;
840;SDS011;406;48.566;13.450;2023-11-19T05:36:54;8.70;;;6.60;;
840;SDS011;406;48.566;13.450;2023-11-19T05:39:20;9.43;;;6.67;;
840;SDS011;406;48.566;13.450;2023-11-19T05:41:47;6.70;;;6.10;;
840;SDS011;406;48.566;13.450;2023-11-19T05:44:14;7.40;;;6.70;;
840;SDS011;406;48.566;13.450;2023-11-19T05:46:40;8.93;;;6.83;;
840;SDS011;406;48.566;13.450;2023-11-19T05:49:09;7.77;;;6.30;;
840;SDS011;406;48.566;13.450;2023-11-19T05:51:39;6.10;;;5.30;;
840;SDS011;406;48.566;13.450;2023-11-19T05:54:07;7.60;;;6.80;;
840;SDS011;406;48.566;13.450;2023-11-19T05:56:34;7.10;;;5.97;;
840;SDS011;406;48.566;13.450;2023-11-19T05:59:02;7.17;;;6.47;;
840;SDS011;406;48.566;13.450;2023-11-19T06:01:36;7.30;;;6.30;;
840;SDS011;406;48.566;13.450;2023-11-19T06:04:03;7.50;;;6.20;;
840;SDS011;406;48.566;13.450;2023-11-19T06:06:31;6.77;;;6.07;;
840;SDS011;406;48.566;13.450;2023-11-19T06:08:57;7.67;;;6.20;;
840;SDS011;406;48.566;13.450;2023-11-19T06:11:24;7.87;;;6.17;;
840;SDS011;406;48.566;13.450;2023-11-19T06:13:54;6.47;;;5.00;;
840;SDS011;406;48.566;13.450;2023-11-19T06:16:20;8.60;;;6.27;;
840;SDS011;406;48.566;13.450;2023-11-19T06:18:47;7.13;;;6.13;;
840;SDS011;406;48.566;13.450;2023-11-19T06:21:14;7.17;;;5.57;;
840;SDS011;406;48.566;13.450;2023-11-19T06:23:40;7.57;;;6.23;;
840;SDS011;406;48.566;13.450;2023-11-19T06:26:07;7.90;;;7.10;;
840;SDS011;406;48.566;13.450;2023-11-19T06:28:34;7.47;;;6.50;;
840;SDS011;406;48.566;13.450;2023-11-19T06:31:01;8.37;;;6.30;;
840;SDS011;406;48.566;13.450;2023-11-19T06:33:27;8.10;;;6.30;;
840;SDS011;406;48.566;13.450;2023-11-19T06:35:54;8.07;;;6.50;;
840;SDS011;406;48.566;13.450;2023-11-19T06:38:21;7.47;;;6.40;;
840;SDS011;406;48.566;13.450;2023-11-19T06:40:47;8.23;;;7.17;;
840;SDS011;406;48.566;13.450;2023-11-19T06:43:18;7.73;;;7.03;;
840;SDS011;406;48.566;13.450;2023-11-19T06:45:45;7.47;;;6.20;;
840;SDS011;406;48.566;13.450;2023-11-19T06:48:11;7.00;;;6.23;;
840;SDS011;406;48.566;13.450;2023-11-19T06:50:38;7.23;;;6.53;;
840;SDS011;406;48.566;13.450;2023-11-19T06:53:05;7.53;;;5.87;;
840;SDS011;406;48.566;13.450;2023-11-19T06:55:32;8.10;;;7.00;;
840;SDS011;406;48.566;13.450;2023-11-19T06:57:59;8.67;;;7.10;;
840;SDS011;406;48.566;13.450;2023-11-19T07:00:26;7.80;;;5.23;;
840;SDS011;406;48.566;13.450;2023-11-19T07:02:53;7.10;;;6.33;;
840;SDS011;406;48.566;13.450;2023-11-19T07:05:20;6.97;;;5.60;;
840;SDS011;406;48.566;13.450;2023-11-19T07:07:46;6.30;;;5.37;;
840;SDS011;406;48.566;13.450;2023-11-19T07:10:13;7.10;;;6.30;;
840;SDS011;406;48.566;13.450;2023-11-19T07:12:39;7.30;;;5.70;;
840;SDS011;406;48.566;13.450;2023-11-19T07:15:06;7.63;;;6.53;;
840;SDS011;406;48.566;13.450;2023-11-19T07:17:33;7.97;;;6.37;;
840;SDS011;406;48.566;13.450;2023-11-19T07:20:01;7.50;;;6.70;;
840;SDS011;406;48.566;13.450;2023-11-19T07:22:28;7.00;;;5.30;;
840;SDS011;406;48.566;13.450;2023-11-19T07:24:56;6.40;;;5.50;;
840;SDS011;406;48.566;13.450;2023-11-19T07:27:23;9.23;;;6.23;;
840;SDS011;406;48.566;13.450;2023-11-19T07:29:50;6.43;;;5.57;;
840;SDS011;406;48.566;13.450;2023-11-19T07:32:17;7.00;;;5.50;;
840;SDS011;406;48.566;13.450;2023-11-19T07:34:44;7.70;;;6.43;;
840;SDS011;406;48.566;13.450;2023-11-19T07:37:11;7.27;;;5.87;;
840;SDS011;406;48.566;13.450;2023-11-19T07:39:37;7.73;;;6.50;;
840;SDS011;406;48.566;13.450;2023-11-19T07:42:07;7.23;;;5.20;;
840;SDS011;406;48.566;13.450;2023-11-19T07:44:33;5.73;;;5.13;;
840;SDS011;406;48.566;13.450;2023-11-19T07:47:00;7.23;;;4.93;;
840;SDS011;406;48.566;13.450;2023-11-19T07:49:27;5.90;;;5.40;;
840;SDS011;406;48.566;13.450;2023-11-19T07:51:53;6.13;;;4.90;;
840;SDS011;406;48.566;13.450;2023-11-19T07:54:20;5.10;;;4.60;;
840;SDS011;406;48.566;13.450;2023-11-19T07:56:47;4.50;;;4.10;;
840;SDS011;406;48.566;13.450;2023-11-19T07:59:16;5.10;;;4.60;;
840;SDS011;406;48.566;13.450;2023-11-19T08:01:42;5.13;;;4.30;;
840;SDS011;406;48.566;13.450;2023-11-19T08:04:09;6.10;;;4.60;;
840;SDS011;406;48.566;13.450;2023-11-19T08:06:35;5.30;;;4.77;;
840;SDS011;406;48.566;13.450;2023-11-19T08:09:02;8.17;;;4.30;;
840;SDS011;406;48.566;13.450;2023-11-19T08:11:28;7.20;;;3.93;;
840;SDS011;406;48.566;13.450;2023-11-19T08:13:55;5.00;;;4.50;;
840;SDS011;406;48.566;13.450;2023-11-19T08:16:22;5.30;;;4.10;;
840;SDS011;406;48.566;13.450;2023-11-19T08:18:48;4.83;;;4.23;;
840;SDS011;406;48.566;13.450;2023-11-19T08:21:15;5.33;;;4.30;;
840;SDS011;406;48.566;13.450;2023-11-19T08:23:41;4.50;;;4.10;;
840;SDS011;406;48.566;13.450;2023-11-19T08:26:08;4.60;;;4.10;;
840;SDS011;406;48.566;13.450;2023-11-19T08:28:36;4.30;;;3.90;;
840;SDS011;406;48.566;13.450;2023-11-19T08:31:04;3.47;;;3.17;;
840;SDS011;406;48.566;13.450;2023-11-19T08:33:31;8.47;;;4.50;;
840;SDS011;406;48.566;13.450;2023-11-19T08:35:58;3.53;;;3.23;;
840;SDS011;406;48.566;13.450;2023-11-19T08:38:24;4.20;;;3.03;;
840;SDS011;406;48.566;13.450;2023-11-19T08:40:54;3.77;;;3.43;;
840;SDS011;406;48.566;13.450;2023-11-19T08:43:26;4.10;;;3.30;;
840;SDS011;406;48.566;13.450;2023-11-19T08:45:52;4.43;;;3.40;;
840;SDS011;406;48.566;13.450;2023-11-19T08:48:19;4.17;;;3.10;;
840;SDS011;406;48.566;13.450;2023-11-19T08:50:46;3.20;;;2.37;;
840;SDS011;406;48.566;13.450;2023-11-19T08:53:12;3.90;;;3.10;;
840;SDS011;406;48.566;13.450;2023-11-19T08:55:39;3.10;;;2.67;;
840;SDS011;406;48.566;13.450;2023-11-19T08:58:05;2.77;;;2.50;;
840;SDS011;406;48.566;13.450;2023-11-19T09:00:33;3.23;;;2.93;;
840;SDS011;406;48.566;13.450;2023-11-19T09:02:59;3.30;;;2.57;;
840;SDS011;406;48.566;13.450;2023-11-19T09:05:26;3.60;;;2.90;;
840;SDS011;406;48.566;13.450;2023-11-19T09:07:53;3.63;;;2.63;;
840;SDS011;406;48.566;13.450;2023-11-19T09:10:19;4.27;;;3.10;;
840;SDS011;406;48.566;13.450;2023-11-19T09:12:46;4.33;;;2.90;;
840;SDS011;406;48.566;13.450;2023-11-19T09:15:12;3.40;;;2.83;;
840;SDS011;406;48.566;13.450;2023-11-19T09:17:39;3.30;;;2.30;;
840;SDS011;406;48.566;13.450;2023-11-19T09:20:07;3.40;;;2.70;;
840;SDS011;406;48.566;13.450;2023-11-19T09:22:34;3.40;;;3.10;;
840;SDS011;406;48.566;13.450;2023-11-19T09:25:01;2.70;;;2.47;;
840;SDS011;406;48.566;13.450;2023-11-19T09:27:27;3.27;;;2.67;;
840;SDS011;406;48.566;13.450;2023-11-19T09:29:54;3.20;;;2.67;;
840;SDS011;406;48.566;13.450;2023-11-19T09:32:24;2.67;;;2.40;;
840;SDS011;406;48.566;13.450;2023-11-19T09:34:51;2.87;;;2.63;;
840;SDS011;406;48.566;13.450;2023-11-19T09:37:17;2.80;;;2.13;;
840;SDS011;406;48.566;13.450;2023-11-19T09:39:47;3.93;;;3.07;;
840;SDS011;406;48.566;13.450;2023-11-19T09:42:13;3.93;;;3.47;;
840;SDS011;406;48.566;13.450;2023-11-19T09:44:40;2.90;;;2.40;;
840;SDS011;406;48.566;13.450;2023-11-19T09:47:09;3.07;;;2.77;;
840;SDS011;406;48.566;13.450;2023-11-19T09:49:36;3.37;;;3.07;;
840;SDS011;406;48.566;13.450;2023-11-19T09:52:03;4.43;;;2.97;;
840;SDS011;406;48.566;13.450;2023-11-19T09:54:30;3.23;;;2.60;;
840;SDS011;406;48.566;13.450;2023-11-19T09:56:57;2.73;;;2.53;;
840;SDS011;406;48.566;13.450;2023-11-19T09:59:30;4.97;;;3.40;;
840;SDS011;406;48.566;13.450;2023-11-19T10:01:57;3.73;;;3.00;;
840;SDS011;406;48.566;13.450;2023-11-19T10:04:24;4.60;;;3.60;;
840;SDS011;406;48.566;13.450;2023-11-19T10:06:52;4.30;;;3.17;;
840;SDS011;406;48.566;13.450;2023-11-19T10:09:18;3.17;;;2.70;;
840;SDS011;406;48.566;13.450;2023-11-19T10:11:45;3.37;;;2.93;;
840;SDS011;406;48.566;13.450;2023-11-19T10:14:12;3.80;;;3.23;;
840;SDS011;406;48.566;13.450;2023-11-19T10:16:39;2.83;;;2.50;;
840;SDS011;406;48.566;13.450;2023-11-19T10:19:07;3.97;;;3.40;;
840;SDS011;406;48.566;13.450;2023-11-19T10:21:33;3.97;;;3.10;;
840;SDS011;406;48.566;13.450;2023-11-19T10:24:00;3.30;;;3.00;;
840;SDS011;406;48.566;13.450;2023-11-19T10:26:27;2.67;;;2.47;;
840;SDS011;406;48.566;13.450;2023-11-19T10:28:54;3.43;;;3.03;;
840;SDS011;406;48.566;13.450;2023-11-19T10:31:21;3.50;;;3.20;;
840;SDS011;406;48.566;13.450;2023-11-19T10:33:52;3.80;;;3.20;;
840;SDS011;406;48.566;13.450;2023-11-19T10:36:19;3.10;;;2.63;;
840;SDS011;406;48.566;13.450;2023-11-19T10:38:53;2.80;;;2.47;;
840;SDS011;406;48.566;13.450;2023-11-19T10:41:29;4.30;;;3.00;;
840;SDS011;406;48.566;13.450;2023-11-19T10:43:57;3.47;;;3.17;;
840;SDS011;406;48.566;13.450;2023-11-19T10:46:37;3.03;;;2.73;;
840;SDS011;406;48.566;13.450;2023-11-19T10:49:06;4.13;;;3.20;;
840;SDS011;406;48.566;13.450;2023-11-19T10:51:33;4.73;;;3.20;;
840;SDS011;406;48.566;13.450;2023-11-19T10:54:02;4.17;;;3.77;;
840;SDS011;406;48.566;13.450;2023-11-19T10:56:32;4.37;;;3.77;;
840;SDS011;406;48.566;13.450;2023-11-19T10:59:00;3.20;;;2.93;;
840;SDS011;406;48.566;13.450;2023-11-19T11:01:27;3.83;;;2.97;;
840;SDS011;406;48.566;13.450;2023-11-19T11:04:10;3.20;;;2.90;;
840;SDS011;406;48.566;13.450;2023-11-19T11:06:40;4.00;;;3.53;;
840;SDS011;406;48.566;13.450;2023-11-19T11:09:07;4.30;;;3.73;;
840;SDS011;406;48.566;13.450;2023-11-19T11:11:41;4.23;;;3.50;;
840;SDS011;406;48.566;13.450;2023-11-19T11:14:11;4.00;;;3.60;;
840;SDS011;406;48.566;13.450;2023-11-19T11:16:43;3.70;;;3.40;;
840;SDS011;406;48.566;13.450;2023-11-19T11:19:10;4.97;;;3.50;;
840;SDS011;406;48.566;13.450;2023-11-19T11:21:38;4.27;;;3.87;;
840;SDS011;406;48.566;13.450;2023-11-19T11:24:11;4.23;;;3.80;;
840;SDS011;406;48.566;13.450;2023-11-19T11:27:09;4.10;;;3.80;;
840;SDS011;406;48.566;13.450;2023-11-19T11:29:51;6.17;;;3.90;;
840;SDS011;406;48.566;13.450;2023-11-19T11:32:33;4.63;;;4.10;;
840;SDS011;406;48.566;13.450;2023-11-19T11:35:08;5.80;;;4.40;;
840;SDS011;406;48.566;13.450;2023-11-19T11:37:44;8.60;;;4.30;;
840;SDS011;406;48.566;13.450;2023-11-19T11:40:16;4.93;;;3.73;;
840;SDS011;406;48.566;13.450;2023-11-19T11:42:44;3.87;;;3.50;;
840;SDS011;406;48.566;13.450;2023-11-19T11:45:11;5.00;;;4.50;;
840;SDS011;406;48.566;13.450;2023-11-19T11:50:11;4.20;;;3.80;;
840;SDS011;406;48.566;13.450;2023-11-19T11:58:21;4.37;;;3.90;;
840;SDS011;406;48.566;13.450;2023-11-19T12:00:52;4.00;;;3.40;;
840;SDS011;406;48.566;13.450;2023-11-19T12:03:20;4.73;;;3.70;;
840;SDS011;406;48.566;13.450;2023-11-19T12:05:48;7.03;;;3.80;;
840;SDS011;406;48.566;13.450;2023-11-19T12:08:18;6.87;;;4.83;;
840;SDS011;406;48.566;13.450;2023-11-19T12:10:52;6.20;;;4.20;;
840;SDS011;406;48.566;13.450;2023-11-19T12:13:20;8.37;;;4.47;;
840;SDS011;406;48.566;13.450;2023-11-19T12:18:23;4.67;;;3.70;;
840;SDS011;406;48.566;13.450;2023-11-19T12:20:50;3.23;;;2.93;;
840;SDS011;406;48.566;13.450;2023-11-19T12:23:17;5.00;;;3.40;;
840;SDS011;406;48.566;13.450;2023-11-19T12:25:44;4.30;;;3.90;;
840;SDS011;406;48.566;13.450;2023-11-19T12:28:12;4.20;;;3.57;;
840;SDS011;406;48.566;13.450;2023-11-19T12:30:39;4.07;;;3.53;;
840;SDS011;406;48.566;13.450;2023-11-19T12:33:09;7.40;;;3.50;;
840;SDS011;406;48.566;13.450;2023-11-19T12:35:44;4.07;;;3.70;;
840;SDS011;406;48.566;13.450;2023-11-19T12:38:20;4.13;;;3.60;;
840;SDS011;406;48.566;13.450;2023-11-19T12:41:04;5.40;;;3.90;;
840;SDS011;406;48.566;13.450;2023-11-19T12:43:31;4.40;;;3.93;;
840;SDS011;406;48.566;13.450;2023-11-19T12:45:58;5.43;;;4.80;;
840;SDS011;406;48.566;13.450;2023-11-19T12:48:24;5.33;;;4.80;;
840;SDS011;406;48.566;13.450;2023-11-19T12:50:52;5.80;;;4.90;;
840;SDS011;406;48.566;13.450;2023-11-19T12:53:20;6.03;;;4.70;;
840;SDS011;406;48.566;13.450;2023-11-19T12:55:47;4.40;;;4.00;;
840;SDS011;406;48.566;13.450;2023-11-19T12:58:33;6.10;;;4.60;;
840;SDS011;406;48.566;13.450;2023-11-19T13:01:03;4.67;;;4.27;;
840;SDS011;406;48.566;13.450;2023-11-19T13:06:02;6.23;;;5.27;;
840;SDS011;406;48.566;13.450;2023-11-19T13:08:37;4.43;;;4.03;;
840;SDS011;406;48.566;13.450;2023-11-19T13:11:05;5.13;;;4.33;;
840;SDS011;406;48.566;13.450;2023-11-19T13:13:32;5.37;;;4.60;;
840;SDS011;406;48.566;13.450;2023-11-19T13:16:05;8.30;;;4.93;;
840;SDS011;406;48.566;13.450;2023-11-19T13:18:32;5.57;;;5.07;;
840;SDS011;406;48.566;13.450;2023-11-19T13:21:01;4.80;;;4.40;;
840;SDS011;406;48.566;13.450;2023-11-19T13:23:28;4.97;;;4.20;;
840;SDS011;406;48.566;13.450;2023-11-19T13:25:55;6.23;;;5.23;;
840;SDS011;406;48.566;13.450;2023-11-19T13:28:21;6.00;;;5.13;;
840;SDS011;406;48.566;13.450;2023-11-19T13:30:48;7.67;;;5.50;;
840;SDS011;406;48.566;13.450;2023-11-19T13:33:17;6.87;;;6.17;;
840;SDS011;406;48.566;13.450;2023-11-19T13:35:44;6.10;;;5.50;;
840;SDS011;406;48.566;13.450;2023-11-19T13:38:10;6.17;;;5.50;;
840;SDS011;406;48.566;13.450;2023-11-19T13:40:37;6.50;;;5.60;;
840;SDS011;406;48.566;13.450;2023-11-19T13:43:05;6.30;;;5.70;;
840;SDS011;406;48.566;13.450;2023-11-19T13:45:32;6.43;;;5.50;;
840;SDS011;406;48.566;13.450;2023-11-19T13:47:58;6.13;;;5.37;;
840;SDS011;406;48.566;13.450;2023-11-19T13:50:25;6.67;;;5.93;;
840;SDS011;406;48.566;13.450;2023-11-19T13:52:52;6.87;;;5.77;;
840;SDS011;406;48.566;13.450;2023-11-19T13:55:19;6.50;;;5.77;;
840;SDS011;406;48.566;13.450;2023-11-19T13:57:45;6.47;;;5.50;;
840;SDS011;406;48.566;13.450;2023-11-19T14:00:12;5.63;;;5.03;;
840;SDS011;406;48.566;13.450;2023-11-19T14:02:40;5.87;;;4.70;;
840;SDS011;406;48.566;13.450;2023-11-19T14:05:07;5.30;;;4.80;;
840;SDS011;406;48.566;13.450;2023-11-19T14:07:34;5.13;;;4.67;;
840;SDS011;406;48.566;13.450;2023-11-19T14:10:01;8.13;;;4.63;;
840;SDS011;406;48.566;13.450;2023-11-19T14:12:27;6.87;;;5.20;;
840;SDS011;406;48.566;13.450;2023-11-19T14:14:54;5.10;;;4.60;;
840;SDS011;406;48.566;13.450;2023-11-19T14:17:21;7.97;;;6.00;;
840;SDS011;406;48.566;13.450;2023-11-19T14:19:47;6.87;;;5.77;;
840;SDS011;406;48.566;13.450;2023-11-19T14:22:14;8.53;;;6.70;;
840;SDS011;406;48.566;13.450;2023-11-19T14:24:40;7.27;;;6.10;;
840;SDS011;406;48.566;13.450;2023-11-19T14:27:12;7.10;;;6.30;;
840;SDS011;406;48.566;13.450;2023-11-19T14:29:38;9.53;;;7.10;;
840;SDS011;406;48.566;13.450;2023-11-19T14:32:06;8.50;;;6.37;;
840;SDS011;406;48.566;13.450;2023-11-19T14:34:33;7.17;;;6.47;;
840;SDS011;406;48.566;13.450;2023-11-19T14:36:59;6.00;;;5.40;;
840;SDS011;406;48.566;13.450;2023-11-19T14:39:27;6.10;;;5.50;;
840;SDS011;406;48.566;13.450;2023-11-19T14:41:55;5.73;;;5.10;;
840;SDS011;406;48.566;13.450;2023-11-19T14:44:24;6.13;;;5.53;;
840;SDS011;406;48.566;13.450;2023-11-19T14:46:51;6.00;;;5.30;;
840;SDS011;406;48.566;13.450;2023-11-19T14:49:17;6.23;;;5.13;;
840;SDS011;406;48.566;13.450;2023-11-19T14:51:44;6.03;;;5.27;;
840;SDS011;406;48.566;13.450;2023-11-19T14:54:14;6.60;;;6.00;;
840;SDS011;406;48.566;13.450;2023-11-19T14:56:42;6.03;;;5.37;;
840;SDS011;406;48.566;13.450;2023-11-19T14:59:08;7.60;;;6.37;;
840;SDS011;406;48.566;13.450;2023-11-19T15:01:35;6.10;;;4.77;;
840;SDS011;406;48.566;13.450;2023-11-19T15:04:02;6.23;;;5.63;;
840;SDS011;406;48.566;13.450;2023-11-19T15:06:31;6.00;;;5.40;;
840;SDS011;406;48.566;13.450;2023-11-19T15:09:00;6.57;;;5.17;;
840;SDS011;406;48.566;13.450;2023-11-19T15:11:26;6.43;;;5.47;;
840;SDS011;406;48.566;13.450;2023-11-19T15:13:53;8.13;;;5.50;;
840;SDS011;406;48.566;13.450;2023-11-19T15:16:19;6.93;;;4.83;;
840;SDS011;406;48.566;13.450;2023-11-19T15:18:52;6.47;;;5.33;;
840;SDS011;406;48.566;13.450;2023-11-19T15:21:18;7.40;;;5.83;;
840;SDS011;406;48.566;13.450;2023-11-19T15:23:45;6.10;;;5.20;;
840;SDS011;406;48.566;13.450;2023-11-19T15:26:11;9.17;;;5.90;;
840;SDS011;406;48.566;13.450;2023-11-19T15:28:38;6.67;;;5.47;;
840;SDS011;406;48.566;13.450;2023-11-19T15:31:05;6.27;;;5.63;;
840;SDS011;406;48.566;13.450;2023-11-19T15:33:31;6.17;;;5.57;;
840;SDS011;406;48.566;13.450;2023-11-19T15:35:58;7.60;;;5.80;;
840;SDS011;406;48.566;13.450;2023-11-19T15:38:26;9.23;;;6.63;;
840;SDS011;406;48.566;13.450;2023-11-19T15:40:53;7.00;;;6.20;;
840;SDS011;406;48.566;13.450;2023-11-19T15:43:19;6.83;;;6.23;;
840;SDS011;406;48.566;13.450;2023-11-19T15:45:46;11.30;;;7.73;;
840;SDS011;406;48.566;13.450;2023-11-19T15:48:13;7.60;;;6.53;;